createdAt,value
2019-04-06T03:02:49.450Z,7.20
2019-04-06T03:05:18.608Z,7.30
2019-04-06T03:07:47.536Z,7.30
2019-04-06T03:10:16.089Z,7.30
2019-04-06T03:12:44.667Z,7.30
2019-04-06T03:15:13.393Z,7.40
2019-04-06T03:17:42.434Z,7.40
2019-04-06T03:20:11.363Z,7.40
2019-04-06T03:22:40.013Z,7.50
2019-04-06T03:25:08.587Z,7.40
2019-04-06T03:27:37.159Z,7.40
2019-04-06T03:30:06.898Z,7.40
2019-04-06T03:32:35.777Z,7.50
2019-04-06T03:35:04.602Z,7.50
2019-04-06T03:37:33.519Z,7.40
2019-04-06T03:40:02.374Z,7.50
2019-04-06T03:42:30.967Z,7.50
2019-04-06T03:44:59.529Z,7.50
2019-04-06T03:47:28.507Z,7.50
2019-04-06T03:49:57.156Z,7.40
2019-04-06T03:52:26.002Z,7.50
2019-04-06T03:54:54.833Z,7.60
2019-04-06T03:57:23.438Z,7.70
2019-04-06T03:59:52.279Z,7.70
2019-04-06T04:02:20.871Z,7.70
2019-04-06T04:04:49.691Z,7.70
2019-04-06T04:07:18.369Z,7.70
2019-04-06T04:09:46.940Z,7.70
2019-04-06T04:12:15.506Z,7.70
2019-04-06T04:14:44.117Z,7.70
2019-04-06T04:17:12.946Z,7.70
2019-04-06T04:19:41.874Z,7.70
2019-04-06T04:22:10.463Z,7.70
2019-04-06T04:24:39.285Z,7.70
2019-04-06T04:27:08.386Z,7.70
2019-04-06T04:29:36.919Z,7.70
2019-04-06T04:32:05.531Z,7.70
2019-04-06T04:34:34.148Z,7.70
2019-04-06T04:37:02.743Z,7.80
2019-04-06T04:39:31.697Z,7.80
2019-04-06T04:42:00.349Z,7.80
2019-04-06T04:44:29.546Z,7.80
2019-04-06T04:46:58.257Z,7.80
2019-04-06T04:49:26.855Z,7.90
2019-04-06T04:51:55.439Z,7.90
2019-04-06T04:54:24.275Z,7.90
2019-04-06T04:56:52.955Z,7.90
2019-04-06T04:59:21.583Z,7.90
2019-04-06T05:01:50.158Z,7.80
2019-04-06T05:04:19.127Z,7.80
2019-04-06T05:06:48.011Z,7.70
2019-04-06T05:09:17.105Z,7.80
2019-04-06T05:11:45.655Z,7.80
2019-04-06T05:14:51.089Z,7.90
2019-04-06T05:17:19.930Z,7.90
2019-04-06T05:19:48.747Z,7.90
2019-04-06T05:22:17.374Z,7.90
2019-04-06T05:24:45.940Z,7.90
2019-04-06T05:27:14.904Z,7.90
2019-04-06T05:29:43.767Z,7.90
2019-04-06T05:32:12.326Z,7.90
2019-04-06T05:34:41.184Z,7.90
2019-04-06T05:37:09.804Z,7.90
2019-04-06T05:39:38.386Z,7.90
2019-04-06T05:42:07.006Z,8.00
2019-04-06T05:44:35.585Z,8.00
2019-04-06T05:47:04.171Z,8.00
2019-04-06T05:49:32.734Z,8.00
2019-04-06T05:52:01.333Z,8.10
2019-04-06T05:54:30.082Z,8.20
2019-04-06T05:56:58.649Z,8.20
2019-04-06T05:59:27.428Z,8.20
2019-04-06T06:01:56.296Z,8.30
2019-04-06T06:04:25.312Z,8.40
2019-04-06T06:06:53.868Z,8.50
2019-04-06T06:09:22.619Z,8.50
2019-04-06T06:11:51.383Z,8.60
2019-04-06T06:14:20.010Z,8.70
2019-04-06T06:16:48.598Z,8.70
2019-04-06T06:19:17.462Z,8.80
2019-04-06T06:21:46.027Z,8.80
2019-04-06T06:24:14.966Z,8.90
2019-04-06T06:26:43.638Z,9.00
2019-04-06T06:29:12.308Z,9.00
2019-04-06T06:31:41.178Z,9.10
2019-04-06T06:34:09.743Z,9.20
2019-04-06T06:36:38.327Z,9.20
2019-04-06T06:39:08.160Z,9.30
2019-04-06T06:41:37.022Z,9.30
2019-04-06T06:44:05.966Z,9.40
2019-04-06T06:46:34.598Z,9.50
2019-04-06T06:49:03.231Z,9.50
2019-04-06T06:51:31.816Z,9.50
2019-04-06T06:54:00.398Z,9.50
2019-04-06T06:56:28.963Z,9.50
2019-04-06T06:58:57.530Z,9.60
2019-04-06T07:01:26.498Z,9.70
2019-04-06T07:03:55.551Z,9.80
2019-04-06T07:06:24.219Z,9.80
2019-04-06T07:08:52.787Z,9.90
2019-04-06T07:11:21.513Z,10.00
2019-04-06T07:13:50.211Z,10.00
2019-04-06T07:16:18.966Z,10.00
2019-04-06T07:18:47.567Z,10.00
2019-04-06T07:21:16.904Z,10.00
2019-04-06T07:23:45.810Z,10.10
2019-04-06T07:26:14.375Z,10.20
2019-04-06T07:28:42.951Z,10.30
2019-04-06T07:31:11.531Z,10.50
2019-04-06T07:33:40.118Z,10.70
2019-04-06T07:36:08.694Z,11.00
2019-04-06T07:38:38.292Z,11.10
2019-04-06T07:41:07.513Z,11.20
2019-04-06T07:43:36.305Z,11.40
2019-04-06T07:46:05.053Z,11.50
2019-04-06T07:48:33.706Z,11.50
2019-04-06T07:51:02.298Z,11.60
2019-04-06T07:53:30.862Z,11.80
2019-04-06T07:55:59.463Z,11.90
2019-04-06T07:58:28.040Z,12.00
2019-04-06T08:00:56.679Z,12.10
2019-04-06T08:03:25.291Z,12.20
2019-04-06T08:05:53.897Z,12.30
2019-04-06T08:08:22.498Z,12.40
2019-04-06T08:10:51.111Z,12.40
2019-04-06T08:13:20.062Z,12.40
2019-04-06T08:15:48.701Z,12.40
2019-04-06T08:18:17.302Z,12.50
2019-04-06T08:20:46.051Z,12.70
2019-04-06T08:23:14.650Z,13.30
2019-04-06T08:25:43.218Z,14.10
2019-04-06T08:28:11.807Z,14.70
2019-04-06T08:30:46.368Z,15.50
2019-04-06T08:33:10.985Z,16.70
2019-04-06T08:35:39.545Z,18.00
2019-04-06T08:38:08.122Z,18.90
2019-04-06T08:40:36.985Z,19.60
2019-04-06T08:43:05.562Z,20.20
2019-04-06T08:45:34.182Z,21.00
2019-04-06T08:48:02.768Z,22.10
2019-04-06T08:50:32.320Z,22.70
2019-04-06T08:53:00.866Z,22.90
2019-04-06T08:55:29.426Z,23.40
2019-04-06T08:57:58.018Z,24.00
2019-04-06T09:00:26.592Z,24.30
2019-04-06T09:02:55.299Z,24.80
2019-04-06T09:05:23.925Z,25.30
2019-04-06T09:07:53.095Z,25.70
2019-04-06T09:10:21.695Z,26.40
2019-04-06T09:12:50.261Z,26.70
2019-04-06T09:15:18.832Z,27.50
2019-04-06T09:17:47.438Z,28.00
2019-04-06T09:20:17.371Z,26.90
2019-04-06T09:22:46.080Z,26.10
2019-04-06T09:25:14.668Z,25.20
2019-04-06T09:27:43.220Z,25.30
2019-04-06T09:30:11.884Z,25.30
2019-04-06T09:32:40.445Z,25.00
2019-04-06T09:35:09.172Z,23.80
2019-04-06T09:37:37.846Z,22.70
2019-04-06T09:40:06.661Z,21.70
2019-04-06T09:42:35.282Z,20.80
2019-04-06T09:45:24.393Z,20.30
2019-04-06T09:47:58.049Z,20.10
2019-04-06T09:50:52.046Z,20.30
2019-04-06T09:53:42.782Z,20.60
2019-04-06T09:56:29.504Z,21.20
2019-04-06T09:59:34.602Z,22.00
2019-04-06T10:02:19.271Z,22.80
2019-04-06T10:04:55.817Z,22.70
2019-04-06T10:07:35.073Z,22.80
2019-04-06T10:10:21.713Z,23.90
2019-04-06T10:13:09.374Z,24.80
2019-04-06T10:15:57.047Z,25.90
2019-04-06T10:18:51.170Z,26.50
2019-04-06T10:21:37.572Z,27.20
2019-04-06T10:24:34.460Z,26.90
2019-04-06T10:27:27.617Z,25.90
2019-04-06T10:30:09.341Z,24.40
2019-04-06T10:32:47.403Z,23.40
2019-04-06T10:35:31.732Z,22.20
2019-04-06T10:38:24.745Z,21.10
2019-04-06T10:41:05.970Z,20.40
2019-04-06T10:43:53.646Z,20.10
2019-04-06T10:46:40.774Z,19.80
2019-04-06T10:49:22.147Z,20.80
2019-04-06T10:52:16.526Z,22.30
2019-04-06T10:55:07.170Z,23.20
2019-04-06T10:57:57.710Z,23.00
2019-04-06T11:00:42.144Z,22.40
2019-04-06T11:03:26.090Z,21.90
2019-04-06T11:06:06.453Z,22.70
2019-04-06T11:09:12.676Z,24.60
2019-04-06T11:12:00.605Z,25.30
2019-04-06T11:14:51.438Z,25.90
2019-04-06T11:17:42.013Z,26.50
2019-04-06T11:20:35.482Z,26.50
2019-04-06T11:23:29.319Z,27.10
2019-04-06T11:26:11.309Z,27.30
2019-04-06T11:29:05.507Z,27.30
2019-04-06T11:31:57.385Z,27.10
2019-04-06T11:34:45.510Z,26.80
2019-04-06T11:37:39.927Z,26.20
2019-04-06T11:40:19.290Z,26.00
2019-04-06T11:42:58.650Z,26.20
2019-04-06T11:45:33.544Z,26.50
2019-04-06T11:48:33.737Z,27.20
2019-04-06T11:51:30.635Z,27.80
2019-04-06T11:54:08.598Z,28.10
2019-04-06T11:56:56.330Z,28.90
2019-04-06T11:59:59.647Z,29.40
2019-04-06T12:02:46.286Z,29.80
2019-04-06T12:05:31.548Z,29.30
2019-04-06T12:08:18.065Z,29.50
2019-04-06T12:10:55.328Z,29.40
2019-04-06T12:13:40.155Z,29.20
2019-04-06T12:16:26.728Z,28.80
2019-04-06T12:19:13.603Z,29.00
2019-04-06T12:22:04.694Z,28.50
2019-04-06T12:25:01.713Z,27.90
2019-04-06T12:27:50.850Z,27.60
2019-04-06T12:30:46.855Z,27.90
2019-04-06T12:33:29.131Z,27.90
2019-04-06T12:36:07.063Z,27.60
2019-04-06T12:38:54.056Z,27.30
2019-04-06T12:41:41.726Z,26.90
2019-04-06T12:44:19.066Z,26.70
2019-04-06T12:47:05.446Z,27.70
2019-04-06T12:49:46.031Z,28.50
2019-04-06T12:52:40.238Z,28.50
2019-04-06T12:55:39.847Z,28.10
2019-04-06T12:58:26.198Z,28.40
2019-04-06T13:01:18.371Z,28.40
2019-04-06T13:04:04.963Z,28.00
2019-04-06T13:06:58.984Z,27.00
2019-04-06T13:09:47.559Z,26.00
2019-04-06T13:12:34.534Z,25.60
2019-04-06T13:15:21.377Z,25.30
2019-04-06T13:18:09.123Z,25.50
2019-04-06T13:20:56.786Z,26.10
2019-04-06T13:23:41.030Z,25.90
2019-04-06T13:26:35.146Z,25.60
2019-04-06T13:29:29.224Z,26.20
2019-04-06T13:32:32.194Z,26.80
2019-04-06T13:35:10.235Z,27.30
2019-04-06T13:37:58.863Z,27.20
2019-04-06T13:40:52.710Z,27.20
2019-04-06T13:43:27.555Z,26.30
2019-04-06T13:46:15.414Z,26.00
2019-04-06T13:49:03.369Z,26.00
2019-04-06T13:51:53.211Z,25.10
2019-04-06T13:54:35.449Z,25.00
2019-04-06T13:57:14.122Z,25.30
2019-04-06T14:00:00.878Z,25.60
2019-04-06T14:02:44.881Z,25.70
2019-04-06T14:05:38.462Z,25.40
2019-04-06T14:08:28.957Z,25.00
2019-04-06T14:11:16.651Z,25.10
2019-04-06T14:14:13.217Z,25.20
2019-04-06T14:17:19.193Z,25.00
2019-04-06T14:20:07.151Z,24.40
2019-04-06T14:23:07.058Z,23.70
2019-04-06T14:26:01.065Z,23.00
2019-04-06T14:28:36.879Z,22.60
2019-04-06T14:31:28.976Z,22.40
2019-04-06T14:34:14.012Z,22.00
2019-04-06T14:36:57.883Z,21.60
2019-04-06T14:39:40.121Z,21.30
2019-04-06T14:42:25.893Z,21.00
2019-04-06T14:45:00.641Z,20.90
2019-04-06T14:47:58.275Z,20.70
2019-04-06T14:50:48.986Z,20.50
2019-04-06T14:53:40.329Z,20.40
2019-04-06T14:56:15.215Z,20.30
2019-04-06T14:59:01.639Z,20.00
2019-04-06T15:01:42.392Z,20.00
2019-04-06T15:04:18.903Z,19.90
2019-04-06T15:07:10.798Z,19.80
2019-04-06T15:09:39.482Z,19.70
2019-04-06T15:12:17.418Z,19.60
2019-04-06T15:15:04.040Z,19.40
2019-04-06T15:17:46.926Z,19.40
2019-04-06T15:20:37.783Z,19.40
2019-04-06T15:23:21.989Z,19.30
2019-04-06T15:26:06.727Z,19.30
2019-04-06T15:28:53.098Z,19.20
2019-04-06T15:31:56.462Z,19.20
2019-04-06T15:34:50.893Z,19.10
2019-04-06T15:37:36.610Z,19.10
2019-04-06T15:40:19.476Z,19.00
2019-04-06T15:43:00.495Z,18.90
2019-04-06T15:45:36.920Z,18.80
2019-04-06T15:48:15.398Z,18.70
2019-04-06T15:51:15.874Z,18.60
2019-04-06T15:53:54.821Z,18.50
2019-04-06T15:56:29.990Z,18.40
2019-04-06T15:59:07.492Z,18.40
2019-04-06T16:01:43.695Z,18.40
2019-04-06T16:04:30.386Z,18.40
2019-04-06T16:07:10.598Z,18.20
2019-04-06T16:09:51.349Z,18.20
2019-04-06T16:12:39.059Z,18.10
2019-04-06T16:15:28.278Z,18.00
2019-04-06T16:18:21.964Z,18.00
2019-04-06T16:21:12.606Z,18.00
2019-04-06T16:23:47.362Z,18.00
2019-04-06T16:26:41.187Z,17.90
2019-04-06T16:29:25.086Z,17.80
2019-04-06T16:32:16.080Z,17.80
2019-04-06T16:34:56.860Z,17.70
2019-04-06T16:37:43.578Z,17.60
2019-04-06T16:40:25.569Z,17.50
2019-04-06T16:43:06.214Z,17.50
2019-04-06T16:45:56.986Z,17.50
2019-04-06T16:48:51.372Z,17.40
2019-04-06T16:51:57.649Z,17.40
2019-04-06T16:54:40.119Z,17.30
2019-04-06T16:57:26.550Z,17.30
2019-04-06T17:00:01.716Z,17.20
2019-04-06T17:02:54.602Z,17.10
2019-04-06T17:05:48.493Z,17.10
2019-04-06T17:08:27.109Z,17.10
2019-04-06T17:11:20.792Z,17.00
2019-04-06T17:14:07.794Z,16.90
2019-04-06T17:16:58.758Z,16.90
2019-04-06T17:19:52.674Z,16.80
2019-04-06T17:22:39.045Z,16.70
2019-04-06T17:25:20.132Z,16.60
2019-04-06T17:27:58.842Z,16.60
2019-04-06T17:30:55.839Z,16.60
2019-04-06T17:33:47.167Z,16.50
2019-04-06T17:36:33.991Z,16.40
2019-04-06T17:39:40.179Z,16.40
2019-04-06T17:42:27.911Z,16.20
2019-04-06T17:45:10.375Z,16.20
2019-04-06T17:48:10.211Z,16.10
2019-04-06T17:51:03.776Z,16.00
2019-04-06T17:53:39.800Z,15.90
2019-04-06T17:56:26.552Z,15.80
2019-04-06T17:59:13.385Z,15.70
2019-04-06T18:01:54.580Z,15.70
2019-04-06T18:04:42.378Z,15.50
2019-04-06T18:07:24.690Z,15.40
2019-04-06T18:10:11.862Z,15.40
2019-04-06T18:13:08.869Z,15.30
2019-04-06T18:15:38.036Z,15.20
2019-04-06T18:18:06.736Z,15.10
2019-04-06T18:20:35.377Z,15.00
2019-04-06T18:23:03.958Z,15.00
2019-04-06T18:25:32.513Z,14.90
2019-04-06T18:28:01.585Z,14.80
2019-04-06T18:30:30.530Z,14.80
2019-04-06T18:33:06.015Z,14.70
2019-04-06T18:35:34.596Z,14.60
2019-04-06T18:38:12.862Z,14.50
2019-04-06T18:40:41.614Z,14.60
2019-04-06T18:43:10.688Z,14.50
2019-04-06T18:45:39.838Z,14.40
2019-04-06T18:48:08.978Z,14.40
2019-04-06T18:50:38.959Z,14.30
2019-04-06T18:53:08.056Z,14.30
2019-04-06T18:55:36.944Z,14.20
2019-04-06T18:58:11.248Z,14.20
2019-04-06T19:00:35.967Z,14.10
2019-04-06T19:03:12.530Z,14.10
2019-04-06T19:05:34.879Z,14.00
2019-04-06T19:08:03.445Z,13.90
2019-04-06T19:10:32.503Z,13.80
2019-04-06T19:13:01.178Z,13.80
2019-04-06T19:15:29.774Z,13.80
2019-04-06T19:17:58.842Z,13.70
2019-04-06T19:20:27.489Z,13.70
2019-04-06T19:22:56.178Z,13.70
2019-04-06T19:25:25.072Z,13.60
2019-04-06T19:27:53.718Z,13.60
2019-04-06T19:30:22.306Z,13.50
2019-04-06T19:32:50.986Z,13.40
2019-04-06T19:35:19.890Z,13.40
2019-04-06T19:37:48.613Z,13.40
2019-04-06T19:40:36.526Z,13.30
2019-04-06T19:43:05.485Z,13.30
2019-04-06T19:45:34.043Z,13.20
2019-04-06T19:48:02.988Z,13.10
2019-04-06T19:50:31.659Z,13.00
2019-04-06T19:53:00.266Z,12.90
2019-04-06T19:55:29.153Z,12.80
2019-04-06T19:57:58.107Z,12.70
2019-04-06T20:00:27.250Z,12.70
2019-04-06T20:02:56.255Z,12.70
2019-04-06T20:05:25.151Z,12.60
2019-04-06T20:07:54.047Z,12.60
2019-04-06T20:10:23.072Z,12.50
2019-04-06T20:12:52.020Z,12.50
2019-04-06T20:15:20.603Z,12.50
2019-04-06T20:17:49.197Z,12.30
2019-04-06T20:20:17.763Z,12.30
2019-04-06T20:22:46.910Z,12.20
2019-04-06T20:25:15.948Z,12.20
2019-04-06T20:27:44.794Z,12.10
2019-04-06T20:30:13.539Z,12.10
2019-04-06T20:33:01.635Z,12.10
2019-04-06T20:35:30.488Z,12.00
2019-04-06T20:37:59.254Z,11.90
2019-04-06T20:40:28.641Z,11.80
2019-04-06T20:42:57.258Z,11.80
2019-04-06T20:45:25.901Z,11.80
2019-04-06T20:47:54.912Z,11.60
2019-04-06T20:50:23.534Z,11.60
2019-04-06T20:52:52.537Z,11.60
2019-04-06T20:55:21.235Z,11.60
2019-04-06T20:57:49.822Z,11.60
2019-04-06T21:00:18.803Z,11.50
2019-04-06T21:02:47.441Z,11.50
2019-04-06T21:05:16.614Z,11.50
2019-04-06T21:07:45.695Z,11.50
2019-04-06T21:10:14.302Z,11.50
2019-04-06T21:12:43.314Z,11.50
2019-04-06T21:15:18.985Z,11.50
2019-04-06T21:17:42.707Z,11.50
2019-04-06T21:20:11.773Z,11.50
2019-04-06T21:22:40.853Z,11.50
2019-04-06T21:25:10.041Z,11.50
2019-04-06T21:27:38.602Z,11.50
2019-04-06T21:30:07.186Z,11.60
2019-04-06T21:32:36.071Z,11.50
2019-04-06T21:35:05.557Z,11.50
2019-04-06T21:37:34.568Z,11.50
2019-04-06T21:40:03.183Z,11.50
2019-04-06T21:42:33.034Z,11.40
2019-04-06T21:45:02.030Z,11.40
2019-04-06T21:47:30.805Z,11.40
2019-04-06T21:49:59.446Z,11.40
2019-04-06T21:52:28.612Z,11.30
2019-04-06T21:54:57.223Z,11.30
2019-04-06T21:57:26.321Z,11.30
2019-04-06T21:59:55.193Z,11.30
